WZZ872 EPWA-LIRF
Flight info
| Callsign | WZZ872 |
|---|---|
| Flight time | 1h 57m |
| Altitude | 36000 |
| Route | EVINA Z175 SKARY DCT MAREG DCT RADLY DCT BAXON DCT UNUMU DCT ETPOK DCT RITEB |
| Aircraft | A321/M-SDE1E2E3FGIJ1J4RWXY/LB1 |
Departure
| Time | 2026-05-07 07:59 |
|---|---|
| Airport | Warsaw Chopin Airport (EPWA) |
Arrival
| Time | 2026-05-07 09:57 |
|---|---|
| Airport | Rome–Fiumicino Leonardo da Vinci International Airport (LIRF) |
| Time | Latitude | Longitude | Altitude | Speed | Heading |
|---|---|---|---|---|---|
| 2026-05-07 07:46 | 52.17195 | 20.96965 | 336 ft | 0 kts | 62° |
| 2026-05-07 07:52 | 52.17190 | 20.96952 | 333 ft | 4 kts | 62° |
| 2026-05-07 07:52 | 52.17178 | 20.96914 | 333 ft | 4 kts | 64° |
| 2026-05-07 07:52 | 52.17169 | 20.96873 | 334 ft | 4 kts | 86° |
| 2026-05-07 07:52 | 52.17173 | 20.96833 | 334 ft | 4 kts | 129° |
| 2026-05-07 07:53 | 52.17184 | 20.96817 | 334 ft | 1 kts | 152° |
| 2026-05-07 07:53 | 52.17186 | 20.96815 | 339 ft | 0 kts | 152° |
| 2026-05-07 07:55 | 52.17185 | 20.96816 | 339 ft | 1 kts | 152° |
| 2026-05-07 07:55 | 52.17132 | 20.96863 | 337 ft | 17 kts | 152° |
| 2026-05-07 07:55 | 52.17023 | 20.96958 | 336 ft | 18 kts | 152° |
| 2026-05-07 07:55 | 52.16909 | 20.97058 | 336 ft | 19 kts | 152° |
| 2026-05-07 07:56 | 52.16791 | 20.97161 | 338 ft | 20 kts | 152° |
| 2026-05-07 07:56 | 52.16668 | 20.97267 | 336 ft | 20 kts | 152° |
| 2026-05-07 07:56 | 52.16563 | 20.97414 | 337 ft | 20 kts | 117° |
| 2026-05-07 07:56 | 52.16503 | 20.97625 | 337 ft | 21 kts | 115° |
| 2026-05-07 07:57 | 52.16442 | 20.97842 | 335 ft | 21 kts | 114° |
| 2026-05-07 07:57 | 52.16381 | 20.98060 | 336 ft | 21 kts | 114° |
| 2026-05-07 07:57 | 52.16322 | 20.98267 | 336 ft | 19 kts | 115° |
| 2026-05-07 07:57 | 52.16279 | 20.98354 | 337 ft | 8 kts | 182° |
| 2026-05-07 07:58 | 52.16225 | 20.98316 | 338 ft | 10 kts | 205° |
| 2026-05-07 07:58 | 52.16159 | 20.98256 | 335 ft | 10 kts | 230° |
| 2026-05-07 07:58 | 52.16165 | 20.98173 | 336 ft | 1 kts | 294° |
| 2026-05-07 07:58 | 52.16170 | 20.98153 | 338 ft | 9 kts | 294° |
| 2026-05-07 07:59 | 52.16291 | 20.97721 | 334 ft | 77 kts | 294° |
| 2026-05-07 07:59 | 52.16605 | 20.96601 | 338 ft | 137 kts | 294° |
| 2026-05-07 07:59 | 52.17055 | 20.95045 | 742 ft | 148 kts | 296° |
| 2026-05-07 07:59 | 52.17495 | 20.93536 | 1394 ft | 151 kts | 295° |
| 2026-05-07 08:00 | 52.17958 | 20.91918 | 1751 ft | 166 kts | 294° |
| 2026-05-07 08:00 | 52.18307 | 20.90016 | 1923 ft | 188 kts | 268° |
| 2026-05-07 08:00 | 52.18042 | 20.87814 | 2096 ft | 209 kts | 256° |
| 2026-05-07 08:00 | 52.17686 | 20.85373 | 2250 ft | 234 kts | 256° |
| 2026-05-07 08:01 | 52.17303 | 20.82688 | 2761 ft | 249 kts | 256° |
| 2026-05-07 08:01 | 52.16915 | 20.79913 | 3496 ft | 252 kts | 256° |
| 2026-05-07 08:01 | 52.16526 | 20.77106 | 4243 ft | 256 kts | 256° |
| 2026-05-07 08:01 | 52.16131 | 20.74263 | 4993 ft | 259 kts | 255° |
| 2026-05-07 08:02 | 52.15473 | 20.71537 | 5691 ft | 261 kts | 238° |
| 2026-05-07 08:02 | 52.14300 | 20.69271 | 6396 ft | 264 kts | 220° |
| 2026-05-07 08:02 | 52.12846 | 20.67419 | 7096 ft | 266 kts | 218° |
| 2026-05-07 08:02 | 52.11376 | 20.65566 | 7811 ft | 268 kts | 218° |
| 2026-05-07 08:03 | 52.09894 | 20.63696 | 8557 ft | 270 kts | 219° |
| 2026-05-07 08:03 | 52.08403 | 20.61815 | 9300 ft | 272 kts | 219° |
| 2026-05-07 08:03 | 52.06901 | 20.59918 | 10010 ft | 274 kts | 219° |
| 2026-05-07 08:03 | 52.05370 | 20.57982 | 10412 ft | 289 kts | 219° |
| 2026-05-07 08:04 | 52.03721 | 20.55899 | 10544 ft | 311 kts | 219° |
| 2026-05-07 08:04 | 52.01958 | 20.53674 | 10672 ft | 331 kts | 219° |
| 2026-05-07 08:04 | 52.00107 | 20.51345 | 10794 ft | 351 kts | 219° |
| 2026-05-07 08:04 | 51.98129 | 20.48860 | 10921 ft | 369 kts | 218° |
| 2026-05-07 08:05 | 51.95948 | 20.46535 | 11222 ft | 381 kts | 209° |
| 2026-05-07 08:05 | 51.93491 | 20.44859 | 11760 ft | 387 kts | 199° |
| 2026-05-07 08:05 | 51.90850 | 20.43908 | 12391 ft | 392 kts | 189° |
| 2026-05-07 08:05 | 51.88120 | 20.43473 | 13013 ft | 395 kts | 188° |
| 2026-05-07 08:06 | 51.85372 | 20.43048 | 13646 ft | 398 kts | 188° |
| 2026-05-07 08:06 | 51.82602 | 20.42619 | 14190 ft | 401 kts | 188° |
| 2026-05-07 08:06 | 51.79810 | 20.42191 | 14721 ft | 404 kts | 188° |
| 2026-05-07 08:06 | 51.77006 | 20.41762 | 15235 ft | 407 kts | 188° |
| 2026-05-07 08:07 | 51.74181 | 20.41333 | 15745 ft | 409 kts | 187° |
| 2026-05-07 08:07 | 51.71337 | 20.40904 | 16247 ft | 411 kts | 187° |
| 2026-05-07 08:07 | 51.68474 | 20.40476 | 16738 ft | 414 kts | 187° |
| 2026-05-07 08:07 | 51.65596 | 20.40044 | 17218 ft | 417 kts | 187° |
| 2026-05-07 08:08 | 51.62702 | 20.39608 | 17681 ft | 419 kts | 187° |
| 2026-05-07 08:08 | 51.59789 | 20.39167 | 18135 ft | 422 kts | 187° |
| 2026-05-07 08:08 | 51.56860 | 20.38722 | 18532 ft | 424 kts | 187° |
| 2026-05-07 08:08 | 51.53914 | 20.38274 | 18939 ft | 426 kts | 187° |
| 2026-05-07 08:09 | 51.50958 | 20.37827 | 19361 ft | 428 kts | 187° |
| 2026-05-07 08:09 | 51.47992 | 20.37382 | 19784 ft | 429 kts | 188° |
| 2026-05-07 08:09 | 51.45011 | 20.36939 | 20202 ft | 431 kts | 187° |
| 2026-05-07 08:09 | 51.42027 | 20.36492 | 20636 ft | 432 kts | 188° |
| 2026-05-07 08:10 | 51.39069 | 20.35672 | 21031 ft | 431 kts | 197° |
| 2026-05-07 08:10 | 51.36240 | 20.34122 | 21432 ft | 431 kts | 205° |
| 2026-05-07 08:10 | 51.33517 | 20.32099 | 21816 ft | 432 kts | 206° |
| 2026-05-07 08:10 | 51.30789 | 20.30061 | 22203 ft | 434 kts | 206° |
| 2026-05-07 08:11 | 51.28053 | 20.28023 | 22578 ft | 435 kts | 206° |
| 2026-05-07 08:11 | 51.25300 | 20.25981 | 22985 ft | 437 kts | 206° |
| 2026-05-07 08:11 | 51.22532 | 20.23936 | 23387 ft | 439 kts | 206° |
| 2026-05-07 08:11 | 51.19762 | 20.21893 | 23715 ft | 440 kts | 206° |
| 2026-05-07 08:12 | 51.17020 | 20.19872 | 24117 ft | 438 kts | 206° |
| 2026-05-07 08:12 | 51.14261 | 20.17843 | 24562 ft | 436 kts | 206° |
| 2026-05-07 08:12 | 51.11474 | 20.15793 | 25004 ft | 434 kts | 206° |
| 2026-05-07 08:12 | 51.08772 | 20.13806 | 25426 ft | 433 kts | 206° |
| 2026-05-07 08:13 | 51.06044 | 20.11809 | 25868 ft | 431 kts | 206° |
| 2026-05-07 08:13 | 51.03285 | 20.09792 | 26310 ft | 430 kts | 206° |
| 2026-05-07 08:13 | 51.00577 | 20.07810 | 26788 ft | 428 kts | 206° |
| 2026-05-07 08:13 | 50.97920 | 20.05863 | 27290 ft | 425 kts | 206° |
| 2026-05-07 08:14 | 50.95244 | 20.03903 | 27753 ft | 423 kts | 206° |
| 2026-05-07 08:14 | 50.92572 | 20.01953 | 28204 ft | 421 kts | 206° |
| 2026-05-07 08:14 | 50.89913 | 20.00015 | 28649 ft | 420 kts | 206° |
| 2026-05-07 08:14 | 50.87264 | 19.98089 | 29088 ft | 419 kts | 206° |
| 2026-05-07 08:15 | 50.84621 | 19.96173 | 29530 ft | 417 kts | 206° |
| 2026-05-07 08:15 | 50.81987 | 19.94266 | 29974 ft | 416 kts | 206° |
| 2026-05-07 08:15 | 50.79365 | 19.92367 | 30346 ft | 414 kts | 206° |
| 2026-05-07 08:15 | 50.76751 | 19.90474 | 30741 ft | 412 kts | 206° |
| 2026-05-07 08:16 | 50.74150 | 19.88594 | 31122 ft | 410 kts | 206° |
| 2026-05-07 08:16 | 50.71557 | 19.86721 | 31460 ft | 409 kts | 206° |
| 2026-05-07 08:16 | 50.68970 | 19.84853 | 31811 ft | 409 kts | 206° |
| 2026-05-07 08:16 | 50.66390 | 19.82990 | 32164 ft | 408 kts | 206° |
| 2026-05-07 08:17 | 50.63809 | 19.81134 | 32516 ft | 407 kts | 205° |
| 2026-05-07 08:17 | 50.61237 | 19.79293 | 32850 ft | 406 kts | 205° |
| 2026-05-07 08:17 | 50.58672 | 19.77456 | 33184 ft | 405 kts | 205° |
| 2026-05-07 08:17 | 50.56113 | 19.75620 | 33529 ft | 404 kts | 205° |
| 2026-05-07 08:18 | 50.53560 | 19.73789 | 33872 ft | 402 kts | 205° |
| 2026-05-07 08:18 | 50.51015 | 19.71968 | 34176 ft | 402 kts | 205° |
| 2026-05-07 08:18 | 50.48472 | 19.70152 | 34447 ft | 402 kts | 205° |
| 2026-05-07 08:18 | 50.45924 | 19.68337 | 34682 ft | 402 kts | 205° |
| 2026-05-07 08:19 | 50.43376 | 19.66527 | 34911 ft | 402 kts | 205° |
| 2026-05-07 08:19 | 50.40827 | 19.64717 | 35152 ft | 402 kts | 205° |
| 2026-05-07 08:19 | 50.38283 | 19.62907 | 35399 ft | 402 kts | 206° |
| 2026-05-07 08:19 | 50.35733 | 19.61093 | 35609 ft | 403 kts | 205° |
| 2026-05-07 08:20 | 50.33184 | 19.59283 | 35816 ft | 403 kts | 206° |
| 2026-05-07 08:20 | 50.28037 | 19.55636 | 35905 ft | 408 kts | 205° |
| 2026-05-07 08:21 | 50.22854 | 19.51975 | 35905 ft | 409 kts | 205° |
| 2026-05-07 08:21 | 50.17663 | 19.48314 | 35908 ft | 410 kts | 205° |
| 2026-05-07 08:22 | 50.12464 | 19.44671 | 35910 ft | 410 kts | 205° |
| 2026-05-07 08:22 | 50.07261 | 19.41027 | 35916 ft | 410 kts | 205° |
| 2026-05-07 08:23 | 50.02053 | 19.37376 | 35923 ft | 411 kts | 205° |
| 2026-05-07 08:23 | 49.96833 | 19.33737 | 35931 ft | 411 kts | 205° |
| 2026-05-07 08:24 | 49.91610 | 19.30111 | 35918 ft | 411 kts | 205° |
| 2026-05-07 08:24 | 49.86383 | 19.26478 | 35926 ft | 411 kts | 205° |
| 2026-05-07 08:25 | 49.81161 | 19.22851 | 35942 ft | 412 kts | 205° |
| 2026-05-07 08:25 | 49.75926 | 19.19238 | 35938 ft | 412 kts | 205° |
| 2026-05-07 08:26 | 49.68066 | 19.13823 | 35933 ft | 413 kts | 205° |
| 2026-05-07 08:26 | 49.62817 | 19.10211 | 35936 ft | 413 kts | 205° |
| 2026-05-07 08:27 | 49.57598 | 19.06638 | 35950 ft | 413 kts | 205° |
| 2026-05-07 08:27 | 49.52344 | 19.03035 | 35955 ft | 413 kts | 205° |
| 2026-05-07 08:28 | 49.47094 | 18.99438 | 35947 ft | 413 kts | 207° |
| 2026-05-07 08:28 | 49.42458 | 18.94330 | 35951 ft | 412 kts | 225° |
| 2026-05-07 08:29 | 49.38569 | 18.87844 | 35968 ft | 413 kts | 226° |
| 2026-05-07 08:29 | 49.34671 | 18.81371 | 35962 ft | 413 kts | 226° |
| 2026-05-07 08:30 | 49.30754 | 18.74923 | 35963 ft | 413 kts | 226° |
| 2026-05-07 08:30 | 49.26845 | 18.68485 | 35965 ft | 413 kts | 226° |
| 2026-05-07 08:31 | 49.22934 | 18.62055 | 35965 ft | 412 kts | 226° |
| 2026-05-07 08:31 | 49.19018 | 18.55644 | 35965 ft | 413 kts | 226° |
| 2026-05-07 08:32 | 49.15096 | 18.49228 | 35963 ft | 413 kts | 226° |
| 2026-05-07 08:32 | 49.11171 | 18.42826 | 35971 ft | 413 kts | 226° |
| 2026-05-07 08:33 | 49.07248 | 18.36440 | 36000 ft | 413 kts | 226° |
| 2026-05-07 08:33 | 49.03345 | 18.30109 | 35978 ft | 412 kts | 226° |
| 2026-05-07 08:34 | 48.99421 | 18.23753 | 35982 ft | 412 kts | 226° |
| 2026-05-07 08:34 | 48.95470 | 18.17365 | 35973 ft | 411 kts | 226° |
| 2026-05-07 08:35 | 48.91574 | 18.11079 | 35978 ft | 411 kts | 226° |
| 2026-05-07 08:35 | 48.87648 | 18.04769 | 35982 ft | 411 kts | 225° |
| 2026-05-07 08:36 | 48.83719 | 17.98467 | 35985 ft | 411 kts | 225° |
| 2026-05-07 08:36 | 48.79787 | 17.92178 | 35988 ft | 411 kts | 225° |
| 2026-05-07 08:37 | 48.75851 | 17.85907 | 35991 ft | 410 kts | 225° |
| 2026-05-07 08:37 | 48.71917 | 17.79650 | 35978 ft | 410 kts | 225° |
| 2026-05-07 08:38 | 48.67977 | 17.73397 | 35986 ft | 410 kts | 225° |
| 2026-05-07 08:38 | 48.64034 | 17.67151 | 35977 ft | 410 kts | 225° |
| 2026-05-07 08:39 | 48.60096 | 17.60910 | 35981 ft | 410 kts | 225° |
| 2026-05-07 08:39 | 48.56158 | 17.54697 | 35981 ft | 407 kts | 225° |
| 2026-05-07 08:40 | 48.52250 | 17.48542 | 35983 ft | 406 kts | 225° |
| 2026-05-07 08:40 | 48.48331 | 17.42397 | 35980 ft | 406 kts | 225° |
| 2026-05-07 08:41 | 48.44409 | 17.36268 | 35984 ft | 406 kts | 225° |
| 2026-05-07 08:41 | 48.40487 | 17.30153 | 35984 ft | 406 kts | 225° |
| 2026-05-07 08:42 | 48.36568 | 17.24033 | 35983 ft | 406 kts | 225° |
| 2026-05-07 08:42 | 48.32644 | 17.17925 | 35985 ft | 406 kts | 225° |
| 2026-05-07 08:43 | 48.28714 | 17.11830 | 35992 ft | 406 kts | 225° |
| 2026-05-07 08:43 | 48.24774 | 17.05752 | 35986 ft | 406 kts | 225° |
| 2026-05-07 08:44 | 48.20832 | 16.99677 | 35992 ft | 406 kts | 225° |
| 2026-05-07 08:44 | 48.16629 | 16.94052 | 35996 ft | 406 kts | 218° |
| 2026-05-07 08:45 | 48.12194 | 16.88828 | 35994 ft | 405 kts | 218° |
| 2026-05-07 08:45 | 48.08514 | 16.84483 | 35996 ft | 406 kts | 218° |
| 2026-05-07 08:46 | 48.04085 | 16.79261 | 35999 ft | 405 kts | 218° |
| 2026-05-07 08:46 | 47.98937 | 16.73221 | 36001 ft | 405 kts | 218° |
| 2026-05-07 08:47 | 47.95230 | 16.68873 | 36003 ft | 404 kts | 218° |
| 2026-05-07 08:47 | 47.90809 | 16.63689 | 35999 ft | 404 kts | 218° |
| 2026-05-07 08:48 | 47.86375 | 16.58525 | 36010 ft | 404 kts | 218° |
| 2026-05-07 08:48 | 47.81943 | 16.53373 | 36009 ft | 404 kts | 218° |
| 2026-05-07 08:49 | 47.77520 | 16.48234 | 36010 ft | 403 kts | 218° |
| 2026-05-07 08:49 | 47.73099 | 16.43105 | 36005 ft | 403 kts | 218° |
| 2026-05-07 08:50 | 47.68671 | 16.37989 | 36002 ft | 403 kts | 218° |
| 2026-05-07 08:50 | 47.64244 | 16.32882 | 36006 ft | 403 kts | 218° |
| 2026-05-07 08:51 | 47.59847 | 16.27813 | 36006 ft | 403 kts | 218° |
| 2026-05-07 08:51 | 47.55391 | 16.22693 | 36000 ft | 402 kts | 218° |
| 2026-05-07 08:52 | 47.50987 | 16.17663 | 35997 ft | 402 kts | 218° |
| 2026-05-07 08:52 | 47.46560 | 16.12607 | 35994 ft | 402 kts | 218° |
| 2026-05-07 08:53 | 47.42135 | 16.07558 | 35992 ft | 402 kts | 218° |
| 2026-05-07 08:53 | 47.37715 | 16.02509 | 35996 ft | 402 kts | 218° |
| 2026-05-07 08:54 | 47.33285 | 15.97474 | 35991 ft | 402 kts | 217° |
| 2026-05-07 08:54 | 47.28851 | 15.92463 | 36029 ft | 402 kts | 217° |
| 2026-05-07 08:55 | 47.24426 | 15.87465 | 35987 ft | 400 kts | 217° |
| 2026-05-07 08:55 | 47.20009 | 15.82471 | 35981 ft | 401 kts | 218° |
| 2026-05-07 08:56 | 47.15588 | 15.77481 | 35986 ft | 401 kts | 217° |
| 2026-05-07 08:56 | 47.11155 | 15.72498 | 35979 ft | 402 kts | 217° |
| 2026-05-07 08:57 | 47.06712 | 15.67522 | 35987 ft | 402 kts | 217° |
| 2026-05-07 08:57 | 47.02261 | 15.62550 | 35989 ft | 402 kts | 217° |
| 2026-05-07 08:58 | 46.97806 | 15.57581 | 35992 ft | 403 kts | 217° |
| 2026-05-07 08:58 | 46.93349 | 15.52606 | 35996 ft | 403 kts | 217° |
| 2026-05-07 08:59 | 46.88891 | 15.47652 | 35996 ft | 403 kts | 217° |
| 2026-05-07 08:59 | 46.84429 | 15.42707 | 35995 ft | 403 kts | 217° |
| 2026-05-07 09:00 | 46.79963 | 15.37758 | 35998 ft | 403 kts | 217° |
| 2026-05-07 09:00 | 46.75500 | 15.32821 | 35996 ft | 403 kts | 217° |
| 2026-05-07 09:01 | 46.71028 | 15.27900 | 36004 ft | 403 kts | 217° |
| 2026-05-07 09:01 | 46.66559 | 15.22984 | 36014 ft | 403 kts | 217° |
| 2026-05-07 09:02 | 46.61847 | 15.18600 | 36013 ft | 403 kts | 210° |
| 2026-05-07 09:02 | 46.56955 | 15.14602 | 35995 ft | 403 kts | 211° |
| 2026-05-07 09:03 | 46.52062 | 15.10601 | 36001 ft | 404 kts | 211° |
| 2026-05-07 09:03 | 46.47172 | 15.06613 | 36006 ft | 403 kts | 211° |
| 2026-05-07 09:04 | 46.42305 | 15.02659 | 36019 ft | 403 kts | 211° |
| 2026-05-07 09:04 | 46.37405 | 14.98690 | 36003 ft | 404 kts | 211° |
| 2026-05-07 09:05 | 46.32496 | 14.94720 | 36004 ft | 404 kts | 211° |
| 2026-05-07 09:05 | 46.27581 | 14.90756 | 36008 ft | 405 kts | 211° |
| 2026-05-07 09:06 | 46.22650 | 14.86780 | 36013 ft | 406 kts | 211° |
| 2026-05-07 09:06 | 46.17717 | 14.82808 | 36003 ft | 406 kts | 211° |
| 2026-05-07 09:07 | 46.12775 | 14.78840 | 36008 ft | 407 kts | 211° |
| 2026-05-07 09:07 | 46.07827 | 14.74880 | 36008 ft | 407 kts | 211° |
| 2026-05-07 09:08 | 46.02874 | 14.70919 | 36021 ft | 407 kts | 211° |
| 2026-05-07 09:08 | 45.97927 | 14.66959 | 36015 ft | 407 kts | 211° |
| 2026-05-07 09:09 | 45.92969 | 14.63017 | 36015 ft | 407 kts | 210° |
| 2026-05-07 09:09 | 45.88004 | 14.59085 | 36021 ft | 408 kts | 210° |
| 2026-05-07 09:10 | 45.83034 | 14.55154 | 36019 ft | 408 kts | 210° |
| 2026-05-07 09:10 | 45.78066 | 14.51221 | 36022 ft | 408 kts | 211° |
| 2026-05-07 09:11 | 45.73098 | 14.47283 | 36028 ft | 408 kts | 211° |
| 2026-05-07 09:11 | 45.68127 | 14.43358 | 36035 ft | 408 kts | 210° |
| 2026-05-07 09:12 | 45.63149 | 14.39454 | 36042 ft | 408 kts | 210° |
| 2026-05-07 09:12 | 45.58171 | 14.35556 | 36044 ft | 408 kts | 210° |
| 2026-05-07 09:13 | 45.53201 | 14.31662 | 36048 ft | 408 kts | 210° |
| 2026-05-07 09:13 | 45.48227 | 14.27768 | 36053 ft | 408 kts | 210° |
| 2026-05-07 09:14 | 45.43254 | 14.23887 | 36053 ft | 408 kts | 211° |
| 2026-05-07 09:14 | 45.38277 | 14.20017 | 36056 ft | 408 kts | 211° |
| 2026-05-07 09:15 | 45.33293 | 14.16150 | 36060 ft | 408 kts | 211° |
| 2026-05-07 09:15 | 45.28306 | 14.12285 | 36050 ft | 408 kts | 211° |
| 2026-05-07 09:16 | 45.23331 | 14.08432 | 36059 ft | 407 kts | 211° |
| 2026-05-07 09:16 | 45.18358 | 14.04592 | 36061 ft | 407 kts | 211° |
| 2026-05-07 09:17 | 45.13387 | 14.00756 | 36064 ft | 407 kts | 211° |
| 2026-05-07 09:17 | 45.08452 | 13.96962 | 36063 ft | 406 kts | 211° |
| 2026-05-07 09:18 | 45.03485 | 13.93158 | 36064 ft | 406 kts | 211° |
| 2026-05-07 09:18 | 44.98518 | 13.89358 | 36053 ft | 406 kts | 211° |
| 2026-05-07 09:19 | 44.93555 | 13.85564 | 36053 ft | 406 kts | 211° |
| 2026-05-07 09:19 | 44.88595 | 13.81773 | 36060 ft | 405 kts | 211° |
| 2026-05-07 09:20 | 44.83636 | 13.77991 | 36057 ft | 405 kts | 211° |
| 2026-05-07 09:20 | 44.78682 | 13.74229 | 36165 ft | 402 kts | 211° |
| 2026-05-07 09:21 | 44.76222 | 13.72364 | 36412 ft | 402 kts | 211° |
| 2026-05-07 09:21 | 44.73763 | 13.70499 | 36640 ft | 401 kts | 211° |
| 2026-05-07 09:21 | 44.71307 | 13.68639 | 36904 ft | 401 kts | 211° |
| 2026-05-07 09:21 | 44.68848 | 13.66778 | 37012 ft | 403 kts | 211° |
| 2026-05-07 09:22 | 44.63883 | 13.63024 | 37027 ft | 406 kts | 211° |
| 2026-05-07 09:22 | 44.58900 | 13.59272 | 37027 ft | 407 kts | 211° |
| 2026-05-07 09:23 | 44.53912 | 13.55521 | 37024 ft | 407 kts | 211° |
| 2026-05-07 09:23 | 44.48918 | 13.51761 | 37024 ft | 408 kts | 211° |
| 2026-05-07 09:24 | 44.43915 | 13.48013 | 37030 ft | 408 kts | 211° |
| 2026-05-07 09:24 | 44.38902 | 13.44262 | 37026 ft | 408 kts | 211° |
| 2026-05-07 09:25 | 44.33909 | 13.40462 | 37028 ft | 409 kts | 211° |
| 2026-05-07 09:25 | 44.28915 | 13.36643 | 37028 ft | 409 kts | 211° |
| 2026-05-07 09:26 | 44.23915 | 13.32838 | 37034 ft | 410 kts | 211° |
| 2026-05-07 09:26 | 44.18898 | 13.29042 | 37001 ft | 410 kts | 211° |
| 2026-05-07 09:27 | 44.13877 | 13.25251 | 37022 ft | 411 kts | 211° |
| 2026-05-07 09:28 | 44.06332 | 13.19569 | 37034 ft | 411 kts | 211° |
| 2026-05-07 09:28 | 44.01294 | 13.15784 | 37038 ft | 412 kts | 211° |
| 2026-05-07 09:29 | 43.96257 | 13.12002 | 37032 ft | 411 kts | 211° |
| 2026-05-07 09:29 | 43.91240 | 13.08246 | 37026 ft | 410 kts | 211° |
| 2026-05-07 09:30 | 43.86251 | 13.04523 | 37004 ft | 410 kts | 212° |
| 2026-05-07 09:30 | 43.82040 | 13.01384 | 37003 ft | 411 kts | 212° |
| 2026-05-07 09:31 | 43.76999 | 12.97631 | 37020 ft | 412 kts | 212° |
| 2026-05-07 09:31 | 43.71949 | 12.93872 | 37019 ft | 412 kts | 212° |
| 2026-05-07 09:32 | 43.66889 | 12.90125 | 37015 ft | 413 kts | 211° |
| 2026-05-07 09:32 | 43.61819 | 12.86386 | 37025 ft | 413 kts | 211° |
| 2026-05-07 09:33 | 43.56747 | 12.82633 | 37032 ft | 414 kts | 212° |
| 2026-05-07 09:33 | 43.54207 | 12.80754 | 36878 ft | 414 kts | 212° |
| 2026-05-07 09:33 | 43.51678 | 12.78885 | 36610 ft | 412 kts | 211° |
| 2026-05-07 09:33 | 43.49155 | 12.77021 | 36379 ft | 410 kts | 212° |
| 2026-05-07 09:34 | 43.46642 | 12.75171 | 36123 ft | 409 kts | 212° |
| 2026-05-07 09:34 | 43.44137 | 12.73335 | 35870 ft | 408 kts | 212° |
| 2026-05-07 09:34 | 43.41641 | 12.71489 | 35625 ft | 407 kts | 212° |
| 2026-05-07 09:34 | 43.39196 | 12.69551 | 35388 ft | 404 kts | 214° |
| 2026-05-07 09:35 | 43.36801 | 12.67535 | 35133 ft | 403 kts | 214° |
| 2026-05-07 09:35 | 43.34434 | 12.65486 | 34888 ft | 402 kts | 216° |
| 2026-05-07 09:35 | 43.32075 | 12.63427 | 34623 ft | 401 kts | 215° |
| 2026-05-07 09:35 | 43.29714 | 12.61379 | 34382 ft | 402 kts | 214° |
| 2026-05-07 09:36 | 43.27332 | 12.59338 | 33605 ft | 406 kts | 214° |
| 2026-05-07 09:36 | 43.24920 | 12.57297 | 32791 ft | 407 kts | 214° |
| 2026-05-07 09:36 | 43.22500 | 12.55269 | 31955 ft | 409 kts | 214° |
| 2026-05-07 09:36 | 43.20060 | 12.53231 | 31073 ft | 412 kts | 214° |
| 2026-05-07 09:37 | 43.17604 | 12.51172 | 30169 ft | 416 kts | 214° |
| 2026-05-07 09:37 | 43.15126 | 12.49093 | 29152 ft | 419 kts | 214° |
| 2026-05-07 09:37 | 43.12634 | 12.47007 | 28161 ft | 421 kts | 213° |
| 2026-05-07 09:37 | 43.10132 | 12.44916 | 27192 ft | 423 kts | 213° |
| 2026-05-07 09:38 | 43.07646 | 12.42838 | 26145 ft | 427 kts | 213° |
| 2026-05-07 09:38 | 43.05061 | 12.40675 | 25055 ft | 432 kts | 213° |
| 2026-05-07 09:38 | 43.02526 | 12.38557 | 24029 ft | 435 kts | 213° |
| 2026-05-07 09:38 | 42.99941 | 12.36403 | 23041 ft | 435 kts | 213° |
| 2026-05-07 09:39 | 42.97372 | 12.34270 | 22253 ft | 429 kts | 213° |
| 2026-05-07 09:39 | 42.94839 | 12.32171 | 21458 ft | 423 kts | 213° |
| 2026-05-07 09:39 | 42.92339 | 12.30098 | 20675 ft | 419 kts | 213° |
| 2026-05-07 09:39 | 42.89870 | 12.28050 | 20218 ft | 408 kts | 213° |
| 2026-05-07 09:40 | 42.87500 | 12.26087 | 20097 ft | 389 kts | 213° |
| 2026-05-07 09:40 | 42.85238 | 12.24213 | 19970 ft | 373 kts | 213° |
| 2026-05-07 09:40 | 42.83063 | 12.22414 | 19847 ft | 359 kts | 213° |
| 2026-05-07 09:40 | 42.80964 | 12.20679 | 19726 ft | 346 kts | 213° |
| 2026-05-07 09:41 | 42.78949 | 12.19009 | 19601 ft | 333 kts | 213° |
| 2026-05-07 09:41 | 42.76923 | 12.17588 | 19468 ft | 323 kts | 204° |
| 2026-05-07 09:41 | 42.74793 | 12.16761 | 19329 ft | 316 kts | 194° |
| 2026-05-07 09:41 | 42.72612 | 12.16502 | 19120 ft | 312 kts | 186° |
| 2026-05-07 09:42 | 42.70443 | 12.16728 | 19042 ft | 317 kts | 174° |
| 2026-05-07 09:42 | 42.68312 | 12.17643 | 18762 ft | 327 kts | 160° |
| 2026-05-07 09:42 | 42.66319 | 12.19167 | 18377 ft | 329 kts | 155° |
| 2026-05-07 09:42 | 42.64355 | 12.20750 | 17957 ft | 327 kts | 155° |
| 2026-05-07 09:43 | 42.62402 | 12.22324 | 17392 ft | 329 kts | 155° |
| 2026-05-07 09:43 | 42.60368 | 12.23783 | 16605 ft | 332 kts | 166° |
| 2026-05-07 09:43 | 42.58106 | 12.24338 | 15720 ft | 333 kts | 185° |
| 2026-05-07 09:43 | 42.55841 | 12.23769 | 14844 ft | 334 kts | 205° |
| 2026-05-07 09:44 | 42.53801 | 12.22226 | 14005 ft | 339 kts | 215° |
| 2026-05-07 09:44 | 42.51800 | 12.20467 | 13070 ft | 347 kts | 215° |
| 2026-05-07 09:44 | 42.49761 | 12.18666 | 12166 ft | 353 kts | 215° |
| 2026-05-07 09:44 | 42.47688 | 12.16841 | 11337 ft | 357 kts | 214° |
| 2026-05-07 09:45 | 42.45633 | 12.15045 | 11051 ft | 345 kts | 214° |
| 2026-05-07 09:45 | 42.43653 | 12.13321 | 10805 ft | 333 kts | 214° |
| 2026-05-07 09:45 | 42.41736 | 12.11651 | 10561 ft | 322 kts | 214° |
| 2026-05-07 09:45 | 42.39826 | 12.10151 | 10319 ft | 315 kts | 202° |
| 2026-05-07 09:46 | 42.37693 | 12.09743 | 10083 ft | 312 kts | 176° |
| 2026-05-07 09:46 | 42.35647 | 12.10624 | 9900 ft | 306 kts | 159° |
| 2026-05-07 09:46 | 42.33707 | 12.11659 | 9765 ft | 294 kts | 165° |
| 2026-05-07 09:46 | 42.31790 | 12.12456 | 9634 ft | 283 kts | 167° |
| 2026-05-07 09:47 | 42.29925 | 12.13157 | 9500 ft | 274 kts | 168° |
| 2026-05-07 09:47 | 42.28120 | 12.13833 | 9368 ft | 265 kts | 167° |
| 2026-05-07 09:47 | 42.26398 | 12.14500 | 9209 ft | 252 kts | 167° |
| 2026-05-07 09:47 | 42.24736 | 12.15168 | 8863 ft | 246 kts | 166° |
| 2026-05-07 09:48 | 42.23107 | 12.15835 | 8427 ft | 244 kts | 166° |
| 2026-05-07 09:48 | 42.21493 | 12.16503 | 7981 ft | 242 kts | 165° |
| 2026-05-07 09:48 | 42.19887 | 12.17173 | 7543 ft | 240 kts | 165° |
| 2026-05-07 09:48 | 42.18309 | 12.17835 | 7332 ft | 233 kts | 165° |
| 2026-05-07 09:49 | 42.16790 | 12.18475 | 7098 ft | 226 kts | 165° |
| 2026-05-07 09:49 | 42.15291 | 12.19078 | 6656 ft | 223 kts | 171° |
| 2026-05-07 09:49 | 42.13757 | 12.19220 | 6210 ft | 220 kts | 182° |
| 2026-05-07 09:49 | 42.12222 | 12.19186 | 5734 ft | 220 kts | 182° |
| 2026-05-07 09:50 | 42.10703 | 12.19165 | 5346 ft | 217 kts | 181° |
| 2026-05-07 09:50 | 42.09201 | 12.19147 | 5027 ft | 215 kts | 181° |
| 2026-05-07 09:50 | 42.07703 | 12.19127 | 4726 ft | 215 kts | 181° |
| 2026-05-07 09:50 | 42.06212 | 12.19105 | 4432 ft | 213 kts | 181° |
| 2026-05-07 09:51 | 42.04778 | 12.19086 | 4251 ft | 197 kts | 181° |
| 2026-05-07 09:51 | 42.03468 | 12.19069 | 4102 ft | 183 kts | 181° |
| 2026-05-07 09:51 | 42.02196 | 12.19051 | 3948 ft | 181 kts | 180° |
| 2026-05-07 09:51 | 42.00957 | 12.19327 | 3505 ft | 187 kts | 165° |
| 2026-05-07 09:52 | 41.99693 | 12.19819 | 3145 ft | 186 kts | 163° |
| 2026-05-07 09:52 | 41.98486 | 12.20319 | 2884 ft | 176 kts | 163° |
| 2026-05-07 09:52 | 41.97355 | 12.20792 | 2643 ft | 162 kts | 163° |
| 2026-05-07 09:52 | 41.96312 | 12.21231 | 2421 ft | 154 kts | 163° |
| 2026-05-07 09:53 | 41.95312 | 12.21651 | 2217 ft | 152 kts | 162° |
| 2026-05-07 09:53 | 41.94295 | 12.22078 | 2013 ft | 150 kts | 162° |
| 2026-05-07 09:53 | 41.93300 | 12.22496 | 1822 ft | 150 kts | 162° |
| 2026-05-07 09:53 | 41.92321 | 12.22907 | 1621 ft | 149 kts | 162° |
| 2026-05-07 09:54 | 41.91322 | 12.23327 | 1414 ft | 148 kts | 162° |
| 2026-05-07 09:54 | 41.90340 | 12.23739 | 1213 ft | 148 kts | 162° |
| 2026-05-07 09:54 | 41.89373 | 12.24145 | 1020 ft | 147 kts | 162° |
| 2026-05-07 09:54 | 41.88396 | 12.24555 | 825 ft | 147 kts | 162° |
| 2026-05-07 09:55 | 41.87417 | 12.24966 | 640 ft | 148 kts | 162° |
| 2026-05-07 09:55 | 41.86432 | 12.25379 | 448 ft | 149 kts | 162° |
| 2026-05-07 09:55 | 41.85437 | 12.25797 | 254 ft | 151 kts | 162° |
| 2026-05-07 09:55 | 41.84431 | 12.26215 | 60 ft | 151 kts | 162° |
| 2026-05-07 09:56 | 41.83488 | 12.26615 | 13 ft | 125 kts | 162° |
| 2026-05-07 09:56 | 41.82771 | 12.26915 | 14 ft | 93 kts | 162° |
| 2026-05-07 09:56 | 41.82199 | 12.27154 | 10 ft | 79 kts | 162° |
| 2026-05-07 09:56 | 41.81716 | 12.27358 | 14 ft | 64 kts | 162° |
| 2026-05-07 09:57 | 41.81487 | 12.27421 | 13 ft | 23 kts | 189° |
| 2026-05-07 09:57 | 41.81376 | 12.27359 | 12 ft | 14 kts | 226° |
| 2026-05-07 09:57 | 41.81330 | 12.27237 | 12 ft | 15 kts | 217° |
| 2026-05-07 09:57 | 41.81227 | 12.27237 | 12 ft | 16 kts | 163° |
| 2026-05-07 09:58 | 41.81112 | 12.27286 | 12 ft | 18 kts | 162° |
| 2026-05-07 09:58 | 41.80988 | 12.27339 | 12 ft | 19 kts | 163° |
| 2026-05-07 09:58 | 41.80855 | 12.27340 | 13 ft | 19 kts | 190° |
| 2026-05-07 09:58 | 41.80722 | 12.27306 | 13 ft | 17 kts | 197° |
| 2026-05-07 09:59 | 41.80647 | 12.27190 | 15 ft | 18 kts | 249° |
| 2026-05-07 09:59 | 41.80602 | 12.27030 | 16 ft | 19 kts | 249° |
| 2026-05-07 09:59 | 41.80555 | 12.26861 | 15 ft | 20 kts | 250° |
| 2026-05-07 09:59 | 41.80507 | 12.26689 | 16 ft | 19 kts | 249° |
| 2026-05-07 10:00 | 41.80461 | 12.26518 | 15 ft | 20 kts | 250° |
| 2026-05-07 10:00 | 41.80404 | 12.26373 | 15 ft | 14 kts | 207° |
| 2026-05-07 10:00 | 41.80331 | 12.26391 | 15 ft | 16 kts | 163° |
| 2026-05-07 10:00 | 41.80209 | 12.26401 | 14 ft | 19 kts | 199° |
| 2026-05-07 10:01 | 41.80087 | 12.26327 | 15 ft | 20 kts | 205° |
| 2026-05-07 10:01 | 41.79959 | 12.26248 | 15 ft | 20 kts | 204° |
| 2026-05-07 10:01 | 41.79830 | 12.26168 | 15 ft | 21 kts | 205° |
| 2026-05-07 10:01 | 41.79727 | 12.26092 | 14 ft | 13 kts | 207° |
| 2026-05-07 10:02 | 41.79682 | 12.26047 | 15 ft | 6 kts | 252° |
| 2026-05-07 10:02 | 41.79691 | 12.26017 | 14 ft | 4 kts | 297° |
| 2026-05-07 10:02 | 41.79701 | 12.25991 | 14 ft | 0 kts | 295° |